Index of /suwareports/SuWa/08-IFS/8.05-IFS/Hydrology_OWFRM/Tributary_Hydrology

[ICO]NameLast modifiedSizeDescription

[PARENTDIR]Parent Directory  -  
[   ]8_5_TributaryHydrology_README_20170630.docx2017-06-16 09:25 763K 
[   ]ILF-1 Daily Reservoir Elevation Data.xlsx2014-11-13 09:46 383K 
[   ]ILF-1 Hourly Reservoir Outflow Data.xlsx2014-11-13 09:48 11M 
[   ]PRM31.4-29.9.zip2016-08-18 13:43 2.3M 
[   ]PRM31.4YentnaRiver.zip2015-10-19 06:30 2.4M 
[   ]PRM43.3-31.4.zip2016-08-18 13:47 2.5M 
[   ]PRM43.3RollyCreek.zip2016-08-18 13:48 2.4M 
[   ]PRM44.9-43.3.zip2016-08-18 13:52 2.3M 
[   ]PRM44.9DeshkaRiver.zip2016-08-18 13:53 2.5M 
[   ]PRM52.1-44.9.zip2016-08-18 13:55 2.5M 
[   ]PRM52.1WillowCreek.zip2016-08-18 13:56 2.5M 
[   ]PRM54.5-52.1.zip2016-08-18 13:55 2.3M 
[   ]PRM54.5LittleWillowCreek.zip2016-08-18 13:55 2.5M 
[   ]PRM63.4-54.5.zip2016-08-18 13:55 2.5M 
[   ]PRM63.4-197.5MileCreek.zip2016-08-18 13:54 2.4M 
[   ]PRM64.7-63.4.zip2016-08-18 13:54 2.4M 
[   ]PRM64.7KashwitnaRiver.zip2016-08-18 13:54 2.3M 
[   ]PRM67.3-64.7.zip2016-08-18 13:53 2.3M 
[   ]PRM67.3CaswellCreek.zip2016-08-18 13:53 2.4M 
[   ]PRM71.7-67.3.zip2016-08-18 13:52 2.4M 
[   ]PRM71.7SheepCreek.zip2016-08-18 13:52 2.5M 
[   ]PRM76.8-71.7.zip2016-08-18 13:52 2.4M 
[   ]PRM76.8GooseCreek.zip2016-08-18 13:51 2.4M 
[   ]PRM81.0-76.8.zip2016-08-18 13:51 2.4M 
[   ]PRM81.0MontanaCreek.zip2016-08-18 13:51 2.4M 
[   ]PRM87.2-81.0.zip2016-08-18 13:50 2.5M 
[   ]PRM87.2RabideuxCreek.zip2016-08-18 13:50 2.3M 
[   ]PRM87.9-87.2.zip2016-08-18 13:49 2.5M 
[   ]PRM88.0-87.9.zip2016-08-18 13:26 4.8M 
[   ]PRM88.0SunshineCreek.zip2016-08-18 13:28 2.5M 
[   ]PRM93.3-88.0.zip2016-08-18 13:29 2.5M 
[   ]PRM93.3BirchCreek.zip2016-08-18 13:30 2.4M 
[   ]PRM95.4-93.3.zip2016-08-18 13:31 2.5M 
[   ]PRM95.4TrapperCreek.zip2016-08-18 13:32 2.4M 
[   ]PRM100.3-95.4.zip2016-08-18 13:33 2.5M 
[   ]PRM100.3TalkeetnaRiver.zip2016-08-18 13:39 2.5M 
[   ]PRM102.5-100.3.zip2016-08-18 13:35 2.5M 
[   ]PRM102.5ChulitnaRiver.zip2016-08-18 13:22 2.2M 
[   ]PRM105.1-102.5.zip2016-08-18 13:36 2.5M 
[   ]PRM105.1WhiskersCreek.zip2016-08-18 13:36 2.5M 
[   ]PRM128.1-105.1.zip2016-08-18 13:37 2.5M 
[   ]PRM128.1SkullCreek.zip2016-08-18 13:38 2.5M 
[   ]PRM140.0-128.1.zip2016-08-18 13:39 2.5M 
[   ]PRM140.1-140.0.zip2016-08-18 11:10 2.3M 
[   ]PRM140.1GoldCreek.zip2016-08-18 11:13 2.4M 
[   ]PRM142.1-140.1.zip2016-08-18 11:14 2.3M 
[   ]PRM142.1IndianRiver.zip2016-08-18 11:17 2.3M 
[   ]PRM152.3-142.1.zip2016-08-18 11:19 2.2M 
[   ]PRM152.3PortageCreek.zip2016-08-18 13:17 2.4M 
[   ]PRM155.9-152.3.zip2016-08-18 11:22 2.4M 
[   ]PRM155.9CheechakoCreek.zip2016-08-18 11:25 2.3M 
[   ]PRM160.5-155.9.zip2016-08-18 11:28 2.5M 
[   ]PRM160.5ChinookCreek.zip2016-08-18 11:29 2.5M 
[   ]PRM164.8-160.5.zip2016-08-18 11:31 2.4M 
[   ]PRM164.8DevilCreek.zip2016-08-18 11:32 2.3M 
[   ]PRM179.3-164.8.zip2016-08-18 11:33 2.2M 
[   ]PRM179.3FogCreek.zip2016-08-18 11:34 2.3M 
[   ]PRM184.0-179.3.zip2016-08-18 11:38 2.5M 
[   ]PRM184.0UnnamedTrib.zip2016-08-18 13:00 2.3M 
[   ]PRM184.6-184.0.zip2016-08-18 13:01 2.4M 
[   ]PRM184.6TsusenaCreek.zip2016-08-18 13:19 2.5M 
[   ]PRM187.2-184.6.zip2016-08-18 13:20 2.3M 
[   ]Susitna Flows at Dam Site (PRM187.2).zip2015-09-03 09:49 2.3M